Time;durP1;ratioP1;P1;durP2;ratioP2;P2;SDS_P1;SDS_P2;PMS_P1;PMS_P2;Temp;Humidity;BMP_temperature;BMP_pressure;BME280_temperature;BME280_humidity;BME280_pressure;Samples;Min_cycle;Max_cycle;Signal;HPM_P1;HPM_P2
2022/01/30 00:01:35;;;;;;;33.17;6.10;;;7.60;99.90;;;;;;5056659;28;20029;-73
2022/01/30 00:04:01;;;;;;;44.75;7.88;;;7.50;99.90;;;;;;5055980;28;20108;-74
2022/01/30 00:06:27;;;;;;;42.15;5.72;;;7.50;99.90;;;;;;5056183;28;20107;-74
2022/01/30 00:08:52;;;;;;;46.20;6.40;;;7.50;99.90;;;;;;5055869;28;20033;-74
2022/01/30 00:11:22;;;;;;;35.28;5.82;;;7.50;99.90;;;;;;5055781;28;20029;-74
2022/01/30 00:13:48;;;;;;;32.90;6.28;;;7.50;99.90;;;;;;5055606;28;20477;-74
2022/01/30 00:16:16;;;;;;;43.85;6.32;;;7.40;99.90;;;;;;5055729;28;20100;-74
2022/01/30 00:19:00;;;;;;;38.97;6.53;;;7.50;99.90;;;;;;5055141;28;20071;-74
2022/01/30 00:23:59;;;;;;;47.50;7.72;;;7.40;99.90;;;;;;5056457;28;20025;-74
2022/01/30 00:26:29;;;;;;;35.60;6.10;;;7.40;99.90;;;;;;5056359;28;20040;-74
2022/01/30 00:28:55;;;;;;;43.28;6.88;;;7.30;99.90;;;;;;5055822;28;20021;-74
2022/01/30 00:31:23;;;;;;;45.75;8.40;;;7.30;99.90;;;;;;5056954;28;20029;-73
2022/01/30 00:33:50;;;;;;;44.03;6.10;;;7.30;99.90;;;;;;5071666;28;20111;-73
2022/01/30 00:36:16;;;;;;;38.35;6.32;;;7.20;99.90;;;;;;5073033;28;20032;-73
2022/01/30 00:38:41;;;;;;;45.45;8.32;;;7.30;99.90;;;;;;5076404;28;20353;-73
2022/01/30 00:41:07;;;;;;;45.72;6.65;;;7.20;99.90;;;;;;5074224;28;20020;-73
2022/01/30 00:43:33;;;;;;;39.08;7.75;;;7.20;99.90;;;;;;5055500;28;20032;-73
2022/01/30 00:45:58;;;;;;;38.47;6.20;;;7.20;99.90;;;;;;5055633;28;20059;-73
2022/01/30 00:48:24;;;;;;;35.42;6.00;;;7.20;99.90;;;;;;5057703;28;20037;-74
2022/01/30 00:50:50;;;;;;;38.40;5.97;;;7.20;99.90;;;;;;5064086;28;20033;-73
2022/01/30 00:53:15;;;;;;;35.17;5.72;;;7.20;99.90;;;;;;5056832;28;20363;-73
2022/01/30 00:55:41;;;;;;;32.63;5.40;;;7.10;99.90;;;;;;5055054;28;20017;-73
2022/01/30 00:58:07;;;;;;;36.90;5.95;;;7.10;99.90;;;;;;5055078;28;20037;-73
2022/01/30 01:00:33;;;;;;;52.10;5.82;;;7.10;99.90;;;;;;5054750;28;20036;-74
2022/01/30 01:03:00;;;;;;;28.45;5.68;;;7.10;99.90;;;;;;5055011;28;20094;-74
2022/01/30 01:05:26;;;;;;;35.50;6.55;;;7.10;99.90;;;;;;5054780;28;20033;-74
2022/01/30 01:07:54;;;;;;;48.75;7.63;;;7.10;99.90;;;;;;5054969;28;20096;-74
2022/01/30 01:10:45;;;;;;;40.05;6.07;;;7.00;99.90;;;;;;5054620;28;20513;-74
2022/01/30 01:23:53;;;;;;;44.97;8.00;;;7.10;99.90;;;;;;5054562;28;20056;-74
2022/01/30 01:26:21;;;;;;;44.85;6.53;;;7.10;99.90;;;;;;5053521;28;20078;-74
2022/01/30 01:28:46;;;;;;;38.83;7.20;;;7.10;99.90;;;;;;5062539;28;20068;-73
2022/01/30 01:31:12;;;;;;;35.08;5.45;;;7.10;99.90;;;;;;5060827;28;20025;-74
2022/01/30 01:36:05;;;;;;;24.88;4.93;;;7.20;99.90;;;;;;5054569;28;20092;-74
2022/01/30 01:38:30;;;;;;;30.95;5.85;;;7.10;99.90;;;;;;5054578;28;20043;-74
2022/01/30 01:40:56;;;;;;;41.22;7.03;;;7.10;99.90;;;;;;5054901;28;20489;-74
2022/01/30 01:43:23;;;;;;;35.40;6.05;;;7.10;99.90;;;;;;5074846;28;20065;-74
2022/01/30 01:45:51;;;;;;;36.90;6.47;;;7.10;99.90;;;;;;5076084;28;20025;-74
2022/01/30 01:48:17;;;;;;;33.88;5.22;;;7.10;99.90;;;;;;5054477;28;20071;-73
2022/01/30 01:50:51;;;;;;;31.23;5.60;;;7.10;99.90;;;;;;5052404;28;20440;-74
2022/01/30 01:53:20;;;;;;;33.67;5.95;;;7.10;99.90;;;;;;5054006;28;20481;-74
2022/01/30 01:55:46;;;;;;;39.45;6.45;;;7.10;99.90;;;;;;5053913;28;20025;-74
2022/01/30 01:58:12;;;;;;;36.85;6.43;;;7.10;99.90;;;;;;5054096;28;20405;-74
2022/01/30 02:00:38;;;;;;;37.95;6.38;;;7.10;99.90;;;;;;5052566;28;20079;-74
2022/01/30 02:03:05;;;;;;;35.97;5.88;;;6.90;99.90;;;;;;5053850;28;20025;-74
2022/01/30 02:05:33;;;;;;;32.85;4.90;;;6.80;99.90;;;;;;5053776;28;20108;-74
2022/01/30 02:13:39;;;;;;;44.40;6.75;;;6.50;99.90;;;;;;5054208;28;20029;-73
2022/01/30 02:24:48;;;;;;;40.33;7.10;;;6.70;99.90;;;;;;5052291;28;20082;-73
2022/01/30 02:27:17;;;;;;;43.58;6.78;;;6.70;99.90;;;;;;5053766;28;20025;-73
2022/01/30 02:29:43;;;;;;;47.67;7.68;;;6.80;99.90;;;;;;5053254;28;20047;-73
2022/01/30 02:32:09;;;;;;;45.65;7.20;;;6.80;99.90;;;;;;5053213;28;20029;-73
2022/01/30 02:34:41;;;;;;;31.60;7.40;;;6.90;99.90;;;;;;5053655;28;20021;-73
2022/01/30 02:37:07;;;;;;;46.58;7.68;;;6.90;99.90;;;;;;5053117;28;20021;-74
2022/01/30 02:39:32;;;;;;;38.30;5.55;;;6.90;99.90;;;;;;5053586;28;20415;-74
2022/01/30 02:41:58;;;;;;;42.72;6.50;;;6.90;99.90;;;;;;5053748;28;20029;-74
2022/01/30 02:46:56;;;;;;;44.92;7.43;;;7.00;99.90;;;;;;5057804;28;20037;-74
2022/01/30 02:51:57;;;;;;;46.83;7.05;;;7.00;99.90;;;;;;5057613;28;20458;-74
2022/01/30 02:54:23;;;;;;;40.40;6.28;;;7.00;99.90;;;;;;5056166;28;20112;-74
2022/01/30 02:56:49;;;;;;;43.55;7.78;;;7.00;99.90;;;;;;5055953;28;20179;-74
2022/01/30 02:59:16;;;;;;;38.50;7.20;;;7.00;99.90;;;;;;5057437;28;20071;-74
2022/01/30 03:01:42;;;;;;;40.58;6.82;;;7.00;99.90;;;;;;5061419;28;20056;-74
2022/01/30 03:04:08;;;;;;;45.63;7.75;;;7.10;99.90;;;;;;5063795;28;20053;-74
2022/01/30 03:06:34;;;;;;;33.15;7.05;;;7.00;99.90;;;;;;5064310;28;20021;-74
2022/01/30 03:09:06;;;;;;;48.25;7.60;;;7.00;99.90;;;;;;5071186;28;20021;-74
2022/01/30 03:11:31;;;;;;;;;;;7.00;99.90;;;;;;5059834;28;20033;-74
2022/01/30 03:13:57;;;;;;;32.67;5.35;;;7.00;99.90;;;;;;5056823;28;19911;-74
2022/01/30 03:16:23;;;;;;;37.75;6.95;;;7.00;99.90;;;;;;5057153;28;20052;-74
2022/01/30 03:18:52;;;;;;;38.75;6.13;;;7.00;99.90;;;;;;5057612;28;20021;-73
2022/01/30 03:21:18;;;;;;;34.55;6.57;;;7.00;99.90;;;;;;5056597;28;20055;-73
2022/01/30 03:23:44;;;;;;;44.25;7.15;;;6.90;99.90;;;;;;5056544;28;20151;-74
2022/01/30 03:26:11;;;;;;;63.55;7.45;;;6.90;99.90;;;;;;5056530;28;20075;-74
2022/01/30 03:28:39;;;;;;;35.33;7.40;;;7.00;99.90;;;;;;5056528;28;20382;-75
2022/01/30 03:31:07;;;;;;;42.55;6.32;;;6.90;99.90;;;;;;5065516;28;20028;-73
2022/01/30 03:33:32;;;;;;;40.92;8.00;;;6.90;99.90;;;;;;5064605;28;20032;-73
2022/01/30 03:35:58;;;;;;;38.78;7.45;;;6.90;99.90;;;;;;5056152;28;20021;-73
2022/01/30 03:38:25;;;;;;;45.45;7.40;;;6.80;99.90;;;;;;5054927;28;20021;-74
2022/01/30 03:40:52;;;;;;;35.17;7.78;;;6.80;99.90;;;;;;5056428;28;20132;-74
2022/01/30 03:43:18;;;;;;;40.78;7.65;;;6.70;99.90;;;;;;5056325;28;20532;-73
2022/01/30 03:45:43;;;;;;;36.15;7.25;;;6.70;99.90;;;;;;5056065;28;20033;-73
2022/01/30 03:48:10;;;;;;;40.15;7.35;;;6.70;99.90;;;;;;5055878;28;20580;-73
2022/01/30 03:50:36;;;;;;;47.97;7.90;;;6.70;99.90;;;;;;5055844;28;20413;-74
2022/01/30 03:53:01;;;;;;;42.03;6.45;;;6.70;99.90;;;;;;5055147;28;20029;-73
2022/01/30 03:55:27;;;;;;;49.75;7.90;;;6.80;99.90;;;;;;5055892;28;20388;-74
2022/01/30 03:57:53;;;;;;;36.28;6.72;;;6.80;99.90;;;;;;5087610;22;20117;-51
2022/01/30 04:00:18;;;;;;;42.35;7.93;;;6.80;99.90;;;;;;5075690;28;20048;-50
2022/01/30 04:02:45;;;;;;;39.72;7.07;;;6.80;99.90;;;;;;5075949;28;20064;-50
2022/01/30 04:05:10;;;;;;;46.55;7.57;;;6.80;99.90;;;;;;5069424;28;20033;-52
2022/01/30 04:07:36;;;;;;;37.97;8.65;;;6.90;99.90;;;;;;5056007;28;20127;-49
2022/01/30 04:10:06;;;;;;;39.42;7.88;;;6.90;99.90;;;;;;5056501;28;20094;-49
2022/01/30 04:12:33;;;;;;;41.97;7.35;;;6.90;99.90;;;;;;5054318;28;20089;-48
2022/01/30 04:14:59;;;;;;;47.25;7.70;;;6.90;99.90;;;;;;5061937;28;20020;-48
2022/01/30 04:17:25;;;;;;;36.00;7.85;;;6.90;99.90;;;;;;5076914;28;20035;-50
2022/01/30 04:19:51;;;;;;;38.83;7.03;;;6.90;99.90;;;;;;5076413;28;20396;-50
2022/01/30 04:22:16;;;;;;;44.22;7.30;;;6.80;99.90;;;;;;5075684;28;20392;-49
2022/01/30 04:24:42;;;;;;;46.47;7.68;;;6.80;99.90;;;;;;5075038;28;20533;-48
2022/01/30 04:27:07;;;;;;;41.53;7.47;;;6.80;99.90;;;;;;5075387;28;20024;-51
2022/01/30 04:29:34;;;;;;;51.20;7.85;;;6.80;99.90;;;;;;5073986;28;20028;-48
2022/01/30 04:32:00;;;;;;;41.80;7.68;;;6.80;99.90;;;;;;5075321;28;20099;-48
2022/01/30 04:34:27;;;;;;;43.70;8.05;;;6.80;99.90;;;;;;5075293;28;20503;-49
2022/01/30 04:37:04;;;;;;;51.83;8.52;;;6.80;99.90;;;;;;5070992;28;20037;-49
2022/01/30 04:52:01;;;;;;;53.00;9.15;;;6.70;99.90;;;;;;5055533;28;20032;-48
2022/01/30 04:53:39;;;;;;;42.53;8.27;;;6.60;99.90;;;;;;5076013;28;20083;-48
2022/01/30 04:56:49;;;;;;;44.72;8.02;;;6.60;99.90;;;;;;5075215;28;20032;-48
2022/01/30 04:59:06;;;;;;;47.10;8.35;;;6.60;99.90;;;;;;5075119;28;20036;-48
2022/01/30 05:06:52;;;;;;;41.03;6.10;;;6.50;99.90;;;;;;5075146;28;20534;-47
2022/01/30 05:09:17;;;;;;;41.75;7.47;;;6.50;99.90;;;;;;5074044;28;20028;-48
2022/01/30 05:11:43;;;;;;;33.25;5.88;;;6.40;99.90;;;;;;5074493;28;20461;-50
2022/01/30 05:14:09;;;;;;;32.85;7.10;;;6.40;99.90;;;;;;5074041;28;20025;-49
2022/01/30 05:16:35;;;;;;;26.55;5.90;;;6.40;99.90;;;;;;5074228;28;20030;-49
2022/01/30 05:19:01;;;;;;;48.42;6.55;;;6.40;99.90;;;;;;5073906;28;20147;-48
2022/01/30 05:21:27;;;;;;;37.38;6.88;;;6.50;99.90;;;;;;5074010;28;20052;-48
2022/01/30 05:23:53;;;;;;;38.75;7.03;;;6.50;99.90;;;;;;5074174;28;20081;-49
2022/01/30 05:26:24;;;;;;;32.10;6.88;;;6.50;99.90;;;;;;5074085;28;20025;-48
2022/01/30 05:28:49;;;;;;;35.58;6.18;;;6.50;99.90;;;;;;5074022;28;20051;-49
2022/01/30 05:31:15;;;;;;;44.33;7.18;;;6.50;99.90;;;;;;5067583;28;20025;-51
2022/01/30 05:33:41;;;;;;;40.63;7.22;;;6.50;99.90;;;;;;5053946;28;20397;-49
2022/01/30 05:36:07;;;;;;;37.55;7.25;;;6.60;99.90;;;;;;5054521;28;20127;-49
2022/01/30 05:38:33;;;;;;;35.22;5.95;;;6.60;99.90;;;;;;5054229;28;20053;-49
2022/01/30 05:40:59;;;;;;;54.05;8.60;;;6.60;99.90;;;;;;5054023;28;20056;-48
2022/01/30 05:43:28;;;;;;;54.63;7.38;;;6.60;99.90;;;;;;5053854;28;20397;-48
2022/01/30 05:46:06;;;;;;;38.53;8.20;;;6.60;99.90;;;;;;5053660;28;20021;-48
2022/01/30 05:48:32;;;;;;;45.55;8.55;;;6.60;99.90;;;;;;5053603;28;20017;-49
2022/01/30 05:50:58;;;;;;;50.17;7.88;;;6.60;99.90;;;;;;5053806;28;20036;-48
2022/01/30 05:53:23;;;;;;;47.30;7.65;;;6.50;99.90;;;;;;5053802;28;20025;-48
2022/01/30 05:55:50;;;;;;;49.25;9.10;;;6.50;99.90;;;;;;5054115;28;20039;-48
2022/01/30 05:58:16;;;;;;;51.88;8.50;;;6.50;99.90;;;;;;5052593;28;20612;-48
2022/01/30 06:00:41;;;;;;;30.83;7.13;;;6.50;99.90;;;;;;5053678;28;20108;-48
2022/01/30 06:03:07;;;;;;;46.95;8.02;;;6.60;99.90;;;;;;5053412;28;20025;-48
2022/01/30 06:05:32;;;;;;;54.55;7.43;;;6.60;99.90;;;;;;5053824;28;20033;-48
2022/01/30 06:08:08;;;;;;;40.38;7.90;;;6.50;99.90;;;;;;5053396;28;20029;-48
2022/01/30 06:10:34;;;;;;;43.53;7.28;;;6.50;99.90;;;;;;5053363;28;20082;-48
2022/01/30 06:12:59;;;;;;;43.28;7.25;;;6.50;99.90;;;;;;5053240;28;20025;-47
2022/01/30 06:15:25;;;;;;;57.45;8.45;;;6.50;99.90;;;;;;5052878;28;20021;-48
2022/01/30 06:17:51;;;;;;;37.92;7.38;;;6.50;99.90;;;;;;5051543;28;20466;-47
2022/01/30 06:20:16;;;;;;;47.58;7.45;;;6.50;99.90;;;;;;5053076;28;20065;-48
2022/01/30 06:22:42;;;;;;;40.83;6.93;;;6.50;99.90;;;;;;5052935;28;20028;-49
2022/01/30 06:25:09;;;;;;;44.97;8.35;;;6.40;99.90;;;;;;5059564;28;20028;-49
2022/01/30 06:27:34;;;;;;;40.85;6.45;;;6.40;99.90;;;;;;5055669;28;20063;-49
2022/01/30 06:30:00;;;;;;;49.67;9.07;;;6.40;99.90;;;;;;5049541;28;20064;-48
2022/01/30 06:32:26;;;;;;;35.22;6.88;;;6.40;99.90;;;;;;5052266;28;20434;-48
2022/01/30 06:34:52;;;;;;;47.47;7.70;;;6.40;99.90;;;;;;5051965;28;20501;-49
2022/01/30 06:37:18;;;;;;;58.00;7.50;;;6.40;99.90;;;;;;5050029;28;20040;-48
2022/01/30 06:39:43;;;;;;;38.55;7.35;;;6.40;99.90;;;;;;5051609;28;20029;-48
2022/01/30 06:42:09;;;;;;;42.53;6.40;;;6.30;99.90;;;;;;5052936;28;20119;-49
2022/01/30 06:44:35;;;;;;;41.22;6.57;;;6.30;99.90;;;;;;5053013;28;20028;-48
2022/01/30 06:47:01;;;;;;;43.88;6.22;;;6.30;99.90;;;;;;5052843;28;20108;-49
2022/01/30 06:49:26;;;;;;;41.17;6.72;;;6.30;99.90;;;;;;5053031;28;20179;-48
2022/01/30 06:51:52;;;;;;;40.45;7.55;;;6.30;99.90;;;;;;5053222;28;20027;-49
2022/01/30 06:54:17;;;;;;;42.00;7.65;;;6.30;99.90;;;;;;5052811;28;20053;-48
2022/01/30 06:56:43;;;;;;;25.67;5.45;;;6.20;99.90;;;;;;5053390;28;20110;-48
2022/01/30 06:59:08;;;;;;;39.72;6.32;;;6.30;99.90;;;;;;5052908;28;20041;-50
2022/01/30 07:01:34;;;;;;;37.92;5.50;;;6.30;99.90;;;;;;5052886;28;20537;-48
2022/01/30 07:03:59;;;;;;;40.05;6.05;;;6.30;99.90;;;;;;5052931;28;20046;-49
2022/01/30 07:06:25;;;;;;;37.13;7.07;;;6.30;99.90;;;;;;5053521;28;20036;-48
2022/01/30 07:08:51;;;;;;;35.47;6.18;;;6.30;99.90;;;;;;5052865;28;20104;-49
2022/01/30 07:11:16;;;;;;;28.55;5.22;;;6.30;99.90;;;;;;5052978;28;20445;-50
2022/01/30 07:13:43;;;;;;;34.78;5.63;;;6.30;99.90;;;;;;5052970;28;20021;-49
2022/01/30 07:16:09;;;;;;;41.50;6.85;;;6.30;99.90;;;;;;5052964;28;20052;-49
2022/01/30 07:18:35;;;;;;;30.83;5.60;;;6.30;99.90;;;;;;5053422;28;20045;-50
2022/01/30 07:21:00;;;;;;;34.25;5.97;;;6.40;99.90;;;;;;5048725;28;20066;-48
2022/01/30 07:23:26;;;;;;;29.42;5.88;;;6.40;99.90;;;;;;5048400;28;20474;-52
2022/01/30 07:25:52;;;;;;;31.85;5.13;;;6.50;99.90;;;;;;5046417;28;20423;-49
2022/01/30 07:28:17;;;;;;;38.75;6.07;;;6.50;99.90;;;;;;5061450;28;20064;-49
2022/01/30 07:30:43;;;;;;;27.45;4.35;;;6.50;99.90;;;;;;5055986;28;20078;-49
2022/01/30 07:33:09;;;;;;;37.60;6.05;;;6.50;99.90;;;;;;5055859;28;20017;-49
2022/01/30 07:35:37;;;;;;;26.58;5.28;;;6.50;99.90;;;;;;5054665;28;20055;-49
2022/01/30 07:38:03;;;;;;;30.92;5.43;;;6.50;99.90;;;;;;5055731;28;20021;-50
2022/01/30 07:40:32;;;;;;;27.85;6.55;;;6.50;99.90;;;;;;5056157;28;20029;-52
2022/01/30 07:42:57;;;;;;;38.58;6.53;;;6.50;99.90;;;;;;5039150;28;20068;-49
2022/01/30 07:45:24;;;;;;;41.40;6.45;;;6.50;99.90;;;;;;5051871;28;20026;-48
2022/01/30 07:47:50;;;;;;;31.50;6.47;;;6.50;99.90;;;;;;5042003;28;20025;-47
2022/01/30 07:50:15;;;;;;;34.45;7.00;;;6.60;99.90;;;;;;5044499;28;20017;-49
2022/01/30 07:52:41;;;;;;;41.90;6.95;;;6.60;99.90;;;;;;5049237;28;20496;-48
2022/01/30 07:55:07;;;;;;;41.53;7.65;;;6.60;99.90;;;;;;5053823;28;20028;-50
2022/01/30 07:57:32;;;;;;;45.33;8.32;;;6.70;99.90;;;;;;5058970;28;20043;-48
2022/01/30 07:59:58;;;;;;;36.33;7.15;;;6.70;99.90;;;;;;5056181;28;20036;-50
2022/01/30 08:02:24;;;;;;;41.47;6.93;;;6.70;99.90;;;;;;5053380;28;20021;-49
2022/01/30 08:04:49;;;;;;;40.85;8.30;;;6.70;99.90;;;;;;5042312;28;20029;-48
2022/01/30 08:07:15;;;;;;;43.13;7.88;;;6.70;99.90;;;;;;5067450;28;20393;-52
2022/01/30 08:09:40;;;;;;;37.67;7.88;;;6.80;99.90;;;;;;5062016;28;20096;-48
2022/01/30 08:12:07;;;;;;;43.65;7.82;;;6.80;99.90;;;;;;5056584;28;20021;-49
2022/01/30 08:14:32;;;;;;;35.83;7.28;;;6.80;99.90;;;;;;5055207;28;20028;-50
2022/01/30 08:16:58;;;;;;;45.05;9.80;;;6.90;99.90;;;;;;5057773;28;20540;-48
2022/01/30 08:19:25;;;;;;;49.88;9.43;;;6.90;99.90;;;;;;5066701;28;20112;-51
2022/01/30 08:21:50;;;;;;;38.72;9.13;;;6.90;99.90;;;;;;5066904;28;20347;-50
2022/01/30 08:24:18;;;;;;;35.67;7.68;;;6.90;99.90;;;;;;5065446;28;20016;-48
2022/01/30 08:26:43;;;;;;;45.95;8.05;;;6.90;99.90;;;;;;5054867;28;20119;-49
2022/01/30 08:29:09;;;;;;;43.80;7.38;;;6.90;99.90;;;;;;5061994;28;20259;-52
2022/01/30 08:31:34;;;;;;;43.47;8.00;;;6.80;99.90;;;;;;5063215;28;20060;-52
2022/01/30 08:34:00;;;;;;;39.85;7.90;;;6.90;99.90;;;;;;5055782;28;20029;-49
2022/01/30 08:36:25;;;;;;;56.72;8.90;;;6.80;99.90;;;;;;5065132;28;20029;-49
2022/01/30 08:38:51;;;;;;;48.08;8.85;;;6.80;99.90;;;;;;5054982;28;20100;-50
2022/01/30 08:41:17;;;;;;;45.75;7.75;;;6.90;99.90;;;;;;5058278;28;20401;-50
2022/01/30 08:43:42;;;;;;;49.63;9.23;;;6.90;99.90;;;;;;5071953;28;20113;-52
2022/01/30 08:46:08;;;;;;;45.05;8.13;;;7.00;99.90;;;;;;5070889;28;20505;-48
2022/01/30 08:48:33;;;;;;;48.75;8.10;;;7.10;99.90;;;;;;5066580;28;20126;-48
2022/01/30 08:50:59;;;;;;;43.53;7.97;;;7.10;99.90;;;;;;5061734;28;20025;-47
2022/01/30 08:53:26;;;;;;;49.95;8.35;;;7.10;99.90;;;;;;5061079;28;20071;-49
2022/01/30 08:55:52;;;;;;;44.15;8.20;;;7.10;99.90;;;;;;5072143;28;20055;-47
2022/01/30 08:58:17;;;;;;;40.72;6.57;;;7.20;99.90;;;;;;5075146;28;20024;-48
2022/01/30 09:00:43;;;;;;;39.25;6.97;;;7.10;99.90;;;;;;5075397;28;20111;-48
2022/01/30 09:03:10;;;;;;;56.58;8.05;;;7.10;99.90;;;;;;5075436;28;20035;-50
2022/01/30 09:05:36;;;;;;;41.00;9.75;;;7.10;99.90;;;;;;5074775;28;20176;-50
2022/01/30 09:08:04;;;;;;;41.60;8.65;;;7.10;99.90;;;;;;5074984;28;20029;-48
2022/01/30 09:10:31;;;;;;;45.42;8.80;;;7.00;99.90;;;;;;5074588;28;20078;-48
2022/01/30 09:12:57;;;;;;;59.63;9.60;;;7.00;99.90;;;;;;5073570;28;20055;-49
2022/01/30 09:15:22;;;;;;;44.95;8.55;;;6.90;99.90;;;;;;5074595;28;20388;-47
2022/01/30 09:17:48;;;;;;;64.70;9.77;;;7.00;99.90;;;;;;5071336;28;20025;-49
2022/01/30 09:20:14;;;;;;;52.88;9.30;;;7.00;99.90;;;;;;5068230;28;20098;-50
2022/01/30 09:22:39;;;;;;;52.63;8.68;;;7.10;99.90;;;;;;5059618;28;20102;-49
2022/01/30 09:25:06;;;;;;;53.70;8.75;;;7.10;99.90;;;;;;5057969;28;20057;-50
2022/01/30 09:27:32;;;;;;;54.22;8.00;;;7.10;99.90;;;;;;5059521;28;20028;-51
2022/01/30 09:29:58;;;;;;;48.75;8.23;;;7.20;99.90;;;;;;5059836;28;20067;-49
2022/01/30 09:32:24;;;;;;;59.33;9.55;;;7.30;99.90;;;;;;5059790;28;20029;-49
2022/01/30 09:34:50;;;;;;;63.30;8.88;;;7.40;99.90;;;;;;5059322;28;20044;-50
2022/01/30 09:37:17;;;;;;;62.15;8.60;;;7.50;99.90;;;;;;5059754;28;20036;-50
2022/01/30 09:39:44;;;;;;;59.65;9.10;;;7.50;99.90;;;;;;5059650;28;20025;-49
2022/01/30 09:42:10;;;;;;;55.17;10.80;;;7.40;99.90;;;;;;5058563;28;20107;-49
2022/01/30 09:44:39;;;;;;;66.25;11.85;;;7.50;99.90;;;;;;5056544;28;20087;-51
2022/01/30 09:47:16;;;;;;;48.88;9.88;;;7.40;99.90;;;;;;5064993;28;20035;-49
2022/01/30 09:49:48;;;;;;;45.95;9.93;;;7.40;99.90;;;;;;5066226;28;20031;-49
2022/01/30 09:52:15;;;;;;;46.65;8.63;;;7.40;99.90;;;;;;5078679;28;20021;-49
2022/01/30 09:54:40;;;;;;;50.08;8.73;;;7.40;99.90;;;;;;5079355;28;20032;-49
2022/01/30 09:57:06;;;;;;;60.95;9.48;;;7.40;99.90;;;;;;5092561;22;20032;-51
2022/01/30 09:59:32;;;;;;;61.78;9.35;;;7.50;99.90;;;;;;5069120;28;20112;-50
2022/01/30 10:01:57;;;;;;;43.67;8.63;;;7.50;99.90;;;;;;5062176;28;20109;-49
2022/01/30 10:04:23;;;;;;;66.30;11.35;;;7.50;99.90;;;;;;5065533;28;20029;-49
2022/01/30 10:07:00;;;;;;;47.67;8.70;;;7.50;99.90;;;;;;5053505;28;20036;-50
2022/01/30 10:09:29;;;;;;;63.50;8.57;;;7.50;99.90;;;;;;5053555;28;20114;-47
2022/01/30 10:15:01;;;;;;;51.58;9.38;;;7.60;99.90;;;;;;5054104;28;20024;-47
2022/01/30 10:17:31;;;;;;;49.90;10.52;;;7.50;99.90;;;;;;5053145;28;20025;-47
2022/01/30 10:20:19;;;;;;;51.83;10.38;;;7.40;99.90;;;;;;5053364;28;20091;-48
2022/01/30 10:22:55;;;;;;;60.95;10.02;;;7.40;99.90;;;;;;5051591;28;20035;-48
2022/01/30 10:25:29;;;;;;;70.55;10.82;;;7.40;99.90;;;;;;5053320;28;20029;-49
2022/01/30 10:28:17;;;;;;;60.67;11.93;;;7.50;99.90;;;;;;5053344;28;20047;-51
2022/01/30 10:30:52;;;;;;;53.97;9.90;;;7.60;99.90;;;;;;5053838;28;20120;-51
2022/01/30 10:33:20;;;;;;;44.50;8.10;;;7.60;99.90;;;;;;5053416;28;20032;-50
2022/01/30 10:35:55;;;;;;;54.83;9.23;;;7.60;99.90;;;;;;5053393;28;20382;-50
2022/01/30 10:38:25;;;;;;;48.38;9.25;;;7.60;99.90;;;;;;5051684;28;20112;-50
2022/01/30 10:41:09;;;;;;;56.50;10.10;;;7.60;99.90;;;;;;5051934;28;20055;-49
2022/01/30 10:43:57;;;;;;;34.13;7.65;;;7.60;99.90;;;;;;5053352;28;20033;-49
2022/01/30 10:46:31;;;;;;;46.67;8.38;;;7.50;99.90;;;;;;5053344;28;20029;-52
2022/01/30 10:49:02;;;;;;;62.55;11.23;;;7.50;99.90;;;;;;5052256;28;20143;-48
2022/01/30 10:51:31;;;;;;;40.78;8.15;;;7.60;99.90;;;;;;5052536;28;20029;-47
2022/01/30 10:54:04;;;;;;;56.90;8.52;;;7.60;99.90;;;;;;5052749;28;20036;-49
2022/01/30 10:56:31;;;;;;;60.83;8.13;;;7.60;99.90;;;;;;5053135;28;20083;-47
2022/01/30 10:59:31;;;;;;;58.08;10.95;;;7.60;99.90;;;;;;5052650;28;20040;-49
2022/01/30 11:02:14;;;;;;;53.05;8.73;;;7.60;99.90;;;;;;5052951;28;20428;-48
2022/01/30 11:04:40;;;;;;;47.67;9.40;;;7.60;99.90;;;;;;5056891;28;20052;-52
2022/01/30 11:07:05;;;;;;;49.33;8.77;;;7.60;99.90;;;;;;5056876;28;20057;-49
2022/01/30 11:09:46;;;;;;;51.20;10.68;;;7.60;99.90;;;;;;5055649;28;20024;-49
2022/01/30 11:12:15;;;;;;;55.78;8.95;;;7.70;99.90;;;;;;5056644;28;20029;-48
2022/01/30 11:17:20;;;;;;;45.70;8.32;;;7.80;99.90;;;;;;5056769;28;20025;-48
2022/01/30 11:19:48;;;;;;;;;;;8.00;99.90;;;;;;5056890;28;20041;-48
2022/01/30 11:22:16;;;;;;;56.05;9.35;;;8.00;99.90;;;;;;5056564;28;19905;-48
2022/01/30 11:24:46;;;;;;;54.83;8.77;;;8.00;99.90;;;;;;5056485;28;20040;-49
2022/01/30 11:27:12;;;;;;;60.45;9.88;;;8.00;99.90;;;;;;5056214;28;20505;-48
2022/01/30 11:29:38;;;;;;;54.72;9.45;;;8.00;99.90;;;;;;5056541;28;20071;-47
2022/01/30 11:32:06;;;;;;;56.60;9.15;;;8.00;99.90;;;;;;5053968;28;20044;-50
2022/01/30 11:34:36;;;;;;;56.95;10.02;;;7.90;99.90;;;;;;5055704;28;20028;-50
2022/01/30 11:37:03;;;;;;;41.45;8.88;;;7.90;99.90;;;;;;5056382;28;20033;-49
2022/01/30 11:39:29;;;;;;;51.03;9.93;;;7.80;99.90;;;;;;5054851;28;20033;-49
2022/01/30 11:42:06;;;;;;;52.60;9.23;;;7.80;99.90;;;;;;5055872;28;20550;-48
2022/01/30 11:44:32;;;;;;;70.63;8.48;;;7.80;99.90;;;;;;5056012;28;20021;-47
2022/01/30 11:47:04;;;;;;;55.20;8.93;;;7.80;99.90;;;;;;5055837;28;20040;-48
2022/01/30 11:50:00;;;;;;;66.03;10.15;;;7.90;99.90;;;;;;5055303;28;20109;-47
2022/01/30 11:52:49;;;;;;;41.08;8.40;;;8.00;99.90;;;;;;5054561;28;20048;-50
2022/01/30 11:55:41;;;;;;;45.55;9.48;;;8.00;99.90;;;;;;5052029;28;20028;-48
2022/01/30 11:58:27;;;;;;;56.15;8.93;;;8.00;99.90;;;;;;5053531;28;20029;-49
2022/01/30 12:00:52;;;;;;;38.50;8.02;;;7.90;99.90;;;;;;5052197;28;20067;-51
2022/01/30 12:03:38;;;;;;;46.38;9.27;;;8.10;99.90;;;;;;5056120;28;20032;-55
2022/01/30 12:06:21;;;;;;;51.67;8.27;;;8.30;99.90;;;;;;5055414;28;20036;-52
2022/01/30 12:08:48;;;;;;;40.33;7.20;;;8.60;99.90;;;;;;5055664;28;20024;-54
2022/01/30 12:11:35;;;;;;;46.47;9.27;;;8.50;99.90;;;;;;5053615;28;20032;-50
2022/01/30 12:14:04;;;;;;;45.80;7.80;;;8.40;99.90;;;;;;5053067;28;20024;-50
2022/01/30 12:16:46;;;;;;;43.13;7.72;;;8.40;99.90;;;;;;5054182;28;20025;-48
2022/01/30 12:19:19;;;;;;;37.33;8.27;;;8.30;99.90;;;;;;5055504;28;20025;-48
2022/01/30 12:21:44;;;;;;;45.35;8.82;;;8.20;99.90;;;;;;5055247;28;20031;-51
2022/01/30 12:24:23;;;;;;;53.05;9.35;;;8.10;99.90;;;;;;5054313;28;20478;-50
2022/01/30 12:26:54;;;;;;;54.22;7.97;;;8.00;99.90;;;;;;5055475;28;20051;-49
2022/01/30 12:29:34;;;;;;;54.22;8.80;;;7.80;99.90;;;;;;5055362;28;20090;-48
2022/01/30 12:32:20;;;;;;;44.60;8.37;;;7.80;99.90;;;;;;5055645;28;20369;-48
2022/01/30 12:35:03;;;;;;;41.38;8.35;;;7.70;99.90;;;;;;5053545;28;20573;-52
2022/01/30 12:37:31;;;;;;;48.10;9.45;;;7.70;99.90;;;;;;5055179;28;20045;-54
2022/01/30 12:39:59;;;;;;;48.60;9.60;;;7.70;99.90;;;;;;5055150;28;20029;-50
2022/01/30 12:42:30;;;;;;;51.95;8.73;;;7.70;99.90;;;;;;5054723;28;20082;-49
2022/01/30 12:45:00;;;;;;;55.70;8.20;;;7.70;99.90;;;;;;5054781;28;20017;-50
2022/01/30 12:47:25;;;;;;;45.90;8.77;;;7.70;99.90;;;;;;5054711;28;20151;-53
2022/01/30 12:49:53;;;;;;;45.30;7.43;;;7.70;99.90;;;;;;5054561;28;20548;-54
2022/01/30 12:55:01;;;;;;;41.45;7.25;;;7.60;99.90;;;;;;5054857;28;20021;-49
2022/01/30 12:57:30;;;;;;;34.00;7.40;;;7.50;99.90;;;;;;5055164;28;20032;-49
2022/01/30 12:59:57;;;;;;;35.90;6.53;;;7.40;99.90;;;;;;5054911;28;20033;-50
2022/01/30 13:02:29;;;;;;;43.35;5.55;;;7.40;99.90;;;;;;5054531;28;20036;-53
2022/01/30 13:04:58;;;;;;;;;;;7.50;99.90;;;;;;5054759;28;20075;-51
2022/01/30 13:07:23;;;;;;;45.50;6.68;;;7.60;99.90;;;;;;5055331;28;20004;-50
2022/01/30 13:10:01;;;;;;;39.22;6.38;;;7.70;99.90;;;;;;5054234;28;20111;-50
2022/01/30 13:12:31;;;;;;;56.67;7.53;;;7.80;99.90;;;;;;5054844;28;20473;-49
2022/01/30 13:14:57;;;;;;;40.28;7.45;;;7.90;99.90;;;;;;5054567;28;20029;-52
2022/01/30 13:17:29;;;;;;;55.47;8.63;;;7.80;99.90;;;;;;5054947;28;20071;-50
2022/01/30 13:19:55;;;;;;;31.08;6.22;;;7.80;99.90;;;;;;5054009;28;20082;-49
2022/01/30 13:22:33;;;;;;;49.47;8.68;;;7.80;99.90;;;;;;5052716;28;20032;-53
2022/01/30 13:25:02;;;;;;;54.65;8.68;;;7.80;99.90;;;;;;5053222;28;20029;-50
2022/01/30 13:27:28;;;;;;;41.15;7.50;;;7.80;99.90;;;;;;5053236;28;20041;-52
2022/01/30 13:29:54;;;;;;;34.25;7.55;;;7.80;99.90;;;;;;5053710;28;20524;-51
2022/01/30 13:32:22;;;;;;;37.75;6.47;;;7.80;99.90;;;;;;5054076;28;20445;-53
2022/01/30 13:34:48;;;;;;;40.63;7.93;;;7.80;99.90;;;;;;5053796;28;20052;-51
2022/01/30 13:37:16;;;;;;;45.20;7.72;;;7.80;99.90;;;;;;5053947;28;20386;-52
2022/01/30 13:39:52;;;;;;;43.95;8.27;;;7.80;99.90;;;;;;5052390;28;20029;-50
2022/01/30 13:47:55;;;;;;;53.35;7.72;;;7.80;99.90;;;;;;5052514;28;20501;-51
2022/01/30 13:50:26;;;;;;;44.42;8.07;;;7.80;99.90;;;;;;5052891;28;20104;-53
2022/01/30 13:53:06;;;;;;;40.22;8.27;;;7.70;99.90;;;;;;5052786;28;20079;-51
2022/01/30 13:55:34;;;;;;;44.78;8.13;;;7.70;99.90;;;;;;5052947;28;20083;-51
2022/01/30 13:58:01;;;;;;;47.85;8.38;;;7.60;99.90;;;;;;5053589;28;20091;-55
2022/01/30 14:00:33;;;;;;;47.92;7.78;;;7.60;99.90;;;;;;5052976;28;20037;-55